Sarah Ann — WDF3387 — position and weather

sailwx.info

Track history (hours):
 
Tides and Currents Weather Stations Pressure Air Temp Water Temp Dewpoint Dewpoint Depression Visibility Wind Speed Wind Dir Waves Ship Positions

Sarah Ann

Owner: Donjon Marine Co., Inc., Hillside, NJ. More information available from US FCC via Universal Licensing System and Coast Guard Vessel Documentation Center.

Last reported at 2018-Jul-21 23:27 UTC. Time now 2018-Jul-22 19:58 UTC.
Position N 40°51' W 073°57'.

Length 2 m; draft 3 m.

Type: Tug. MMSI: 366902120.

Date/timePositionNaut miles runAvg speedWind from/ knotsBaromVisibWave heightAir tempDewpointWater temp
2018-Jul-21 23:27N 40°51' W 073°57'4 9.6
2018-Jul-21 22:59N 40°47' W 073°59'4 9.1
2018-Jul-21 22:31N 40°43' W 074°02'4 8.1
2018-Jul-21 22:00N 40°40' W 074°04'4 7.2
2018-Jul-21 21:30N 40°38' W 074°09'3 6.4
2018-Jul-21 20:59N 40°42' W 074°09'0 0.3
2018-Jul-21 20:02N 40°42' W 074°09'0 0.0
2018-Jul-21 19:59N 40°42' W 074°09'0 0.0
2018-Jul-21 19:30N 40°42' W 074°09'0 0.0
2018-Jul-21 18:55N 40°42' W 074°09'0 0.0
2018-Jul-21 18:23N 40°42' W 074°09'0 0.0
2018-Jul-21 17:48N 40°42' W 074°09'0 0.0
2018-Jul-21 17:14N 40°42' W 074°09'0 0.0
2018-Jul-21 14:28N 40°42' W 074°09'0 0.0
2018-Jul-21 13:18N 40°42' W 074°09'0 0.0
2018-Jul-21 12:59N 40°42' W 074°09'0 0.0
2018-Jul-21 12:25N 40°42' W 074°09'1 1.3
2018-Jul-21 11:46N 40°41' W 074°08'0 0.0
2018-Jul-21 11:20N 40°41' W 074°08'0 0.0
2018-Jul-21 10:55N 40°41' W 074°08'1 1.7
2018-Jul-21 10:31N 40°41' W 074°09'1 1.6
2018-Jul-21 10:00N 40°40' W 074°08'2 3.1
2018-Jul-21 09:30N 40°39' W 074°08'3 5.2
2018-Jul-21 09:01N 40°39' W 074°04'3 6.4
2018-Jul-21 08:31N 40°40' W 074°00'0 0.9
2018-Jul-21 08:00N 40°40' W 073°60'1 1.6
2018-Jul-21 07:31N 40°40' W 074°01'3 5.8
2018-Jul-21 07:01N 40°41' W 074°04'0 0.3
2018-Jul-21 06:30N 40°41' W 074°04'0 0.0
2018-Jul-21 06:01N 40°41' W 074°04'0 0.0
2018-Jul-21 05:30N 40°41' W 074°04'0 0.0
2018-Jul-21 04:59N 40°41' W 074°04'0 0.0
2018-Jul-21 04:30N 40°41' W 074°04'0 0.0
2018-Jul-21 04:01N 40°41' W 074°04'0 0.0
2018-Jul-21 03:31N 40°41' W 074°04'0 0.1
2018-Jul-21 03:01N 40°41' W 074°04'0 0.0
2018-Jul-21 02:30N 40°41' W 074°04'0 0.0
2018-Jul-21 02:00N 40°41' W 074°04'0 0.0
2018-Jul-21 01:30N 40°41' W 074°04'0 0.0
2018-Jul-21 00:59N 40°41' W 074°04'0 0.3
2018-Jul-21 00:31N 40°41' W 074°04'2 4.2
2018-Jul-21 00:01N 40°42' W 074°02'4 7.5
2018-Jul-20 23:30N 40°44' W 073°58'1 1.6
2018-Jul-20 22:57N 40°44' W 073°57'1 2.0
2018-Jul-20 22:14N 40°43' W 073°56'0 0.0
2018-Jul-20 22:00N 40°43' W 073°56'1 2.6
2018-Jul-20 21:27N 40°44' W 073°57'1 2.8
2018-Jul-20 21:00N 40°43' W 073°58'3 6.8
2018-Jul-20 20:30N 40°41' W 074°02'2 4.2
2018-Jul-20 20:01N 40°41' W 074°04'0 0.7
2018-Jul-20 19:31N 40°41' W 074°05'0 0.0
2018-Jul-20 19:01N 40°41' W 074°05'0 0.0
2018-Jul-20 18:31N 40°41' W 074°05'0 0.1
2018-Jul-20 18:00N 40°41' W 074°05'1 2.5
2018-Jul-20 17:30N 40°40' W 074°04'3 6.0
2018-Jul-20 17:00N 40°39' W 074°07'2 3.8
2018-Jul-20 16:31N 40°40' W 074°08'2 0.8
2018-Jul-20 14:23N 40°42' W 074°09'0 0.1
2018-Jul-20 13:57N 40°42' W 074°09'1 1.7
2018-Jul-20 13:29N 40°41' W 074°08'0 0.0
2018-Jul-20 12:59N 40°41' W 074°08'0 1.0
2018-Jul-20 12:30N 40°42' W 074°09'0 0.2
2018-Jul-20 12:00N 40°42' W 074°09'1 1.6
2018-Jul-20 11:30N 40°41' W 074°08'0 0.7
2018-Jul-20 11:00N 40°41' W 074°08'1 2.3
2018-Jul-20 10:31N 40°40' W 074°08'1 2.3
2018-Jul-20 10:00N 40°39' W 074°09'2 3.8
2018-Jul-20 09:31N 40°39' W 074°06'2 4.0
2018-Jul-20 09:00N 40°40' W 074°04'1 2.6
2018-Jul-20 08:30N 40°41' W 074°04'0 0.0
2018-Jul-20 08:00N 40°41' W 074°04'0 0.0
2018-Jul-20 07:30N 40°41' W 074°04'2 4.4
2018-Jul-20 07:01N 40°39' W 074°05'1 1.1
2018-Jul-20 06:30N 40°39' W 074°06'0 0.5
2018-Jul-20 05:47N 40°39' W 074°06'1 5.1
2018-Jul-20 05:31N 40°39' W 074°04'2 3.5
2018-Jul-20 05:01N 40°41' W 074°04'1 1.4
2018-Jul-20 04:30N 40°41' W 074°04'0 0.0
2018-Jul-20 04:00N 40°41' W 074°04'0 0.0
2018-Jul-20 03:30N 40°41' W 074°04'0 0.0
2018-Jul-20 03:00N 40°41' W 074°04'0 0.0
2018-Jul-20 02:31N 40°41' W 074°04'0 0.0
2018-Jul-20 02:00N 40°41' W 074°04'0 0.2
2018-Jul-20 01:30N 40°41' W 074°05'2 4.0
2018-Jul-20 01:00N 40°41' W 074°02'4 7.3
2018-Jul-20 00:30N 40°44' W 073°58'2 0.4
2018-Jul-19 19:09N 40°46' W 073°57'1 7.4
2018-Jul-19 19:01N 40°45' W 073°58'3 6.6
2018-Jul-19 18:31N 40°42' W 074°00'3 5.9
2018-Jul-19 18:00N 40°41' W 074°04'1 1.9
2018-Jul-19 17:31N 40°41' W 074°05'0 0.0
2018-Jul-19 17:01N 40°41' W 074°05'0 0.0
2018-Jul-19 16:31N 40°41' W 074°05'0 0.2
2018-Jul-19 16:01N 40°41' W 074°05'0 0.0
2018-Jul-19 15:31N 40°41' W 074°05'0 0.0
2018-Jul-19 15:01N 40°41' W 074°05'0 0.0
2018-Jul-19 14:30N 40°41' W 074°05'0 0.0
2018-Jul-19 13:30N 40°41' W 074°05'0 0.0
2018-Jul-19 13:01N 40°41' W 074°05'0 0.1
2018-Jul-19 12:30N 40°41' W 074°05'2 4.4
2018-Jul-19 12:01N 40°41' W 074°02'4 7.6
2018-Jul-19 11:31N 40°43' W 073°58'3 0.5
2018-Jul-19 06:45N 40°46' W 073°57'2 7.0
2018-Jul-19 06:30N 40°44' W 073°58'3 5.2
2018-Jul-19 06:00N 40°42' W 074°00'3 5.5
2018-Jul-19 05:30N 40°41' W 074°03'1 2.5
2018-Jul-19 05:00N 40°41' W 074°05'2 4.0
2018-Jul-19 04:30N 40°39' W 074°05'3 5.9
2018-Jul-19 03:59N 40°39' W 074°09'2 3.2
2018-Jul-19 03:30N 40°41' W 074°08'0 0.5
2018-Jul-19 03:00N 40°41' W 074°09'0 0.0
2018-Jul-19 02:30N 40°41' W 074°09'0 0.0
2018-Jul-19 02:00N 40°41' W 074°09'0 0.0
2018-Jul-19 01:30N 40°41' W 074°09'0 0.0
2018-Jul-19 01:00N 40°41' W 074°09'0 0.0
2018-Jul-19 00:30N 40°41' W 074°09'0 0.0
2018-Jul-19 00:00N 40°41' W 074°09'0 0.2
2018-Jul-18 23:30N 40°41' W 074°09'1 1.9
2018-Jul-18 23:00N 40°40' W 074°08'1 1.9
2018-Jul-18 22:30N 40°41' W 074°09'1 2.2
2018-Jul-18 22:00N 40°42' W 074°09'0 0.1
2018-Jul-18 21:17N 40°42' W 074°09'0 0.2
2018-Jul-18 20:58N 40°42' W 074°09'0 0.2
2018-Jul-18 20:27N 40°42' W 074°09'0 0.0
2018-Jul-18 19:59N 40°42' W 074°09'0 0.2
2018-Jul-18 19:30N 40°42' W 074°09'0 0.0
2018-Jul-18 19:00N 40°42' W 074°09'0 0.0
2018-Jul-18 18:30N 40°42' W 074°09'0 0.0
2018-Jul-18 18:00N 40°42' W 074°09'0 0.0
2018-Jul-18 17:30N 40°42' W 074°09'0 0.0
2018-Jul-18 16:59N 40°42' W 074°09'0 0.0
2018-Jul-18 15:50N 40°42' W 074°09'0 0.0
2018-Jul-18 15:28N 40°42' W 074°09'0 0.0
2018-Jul-18 14:58N 40°42' W 074°09'0 0.0
2018-Jul-18 14:30N 40°42' W 074°09'0 0.0
2018-Jul-18 13:27N 40°42' W 074°09'1 1.7
2018-Jul-18 13:00N 40°42' W 074°08'3 6.0
2018-Jul-18 12:30N 40°39' W 074°09'4 7.6
2018-Jul-18 12:00N 40°40' W 074°04'2 3.2
2018-Jul-18 11:31N 40°41' W 074°05'0 0.0
2018-Jul-18 10:30N 40°41' W 074°05'0 0.0
2018-Jul-18 10:00N 40°41' W 074°05'0 0.9
2018-Jul-18 09:30N 40°41' W 074°04'0 0.0
2018-Jul-18 09:00N 40°41' W 074°04'0 0.0
2018-Jul-18 08:30N 40°41' W 074°04'0 0.0
2018-Jul-18 08:00N 40°41' W 074°04'0 0.0
2018-Jul-18 07:30N 40°41' W 074°04'0 0.0
2018-Jul-18 07:00N 40°41' W 074°04'0 0.0
2018-Jul-18 06:30N 40°41' W 074°04'0 0.0
2018-Jul-18 06:00N 40°41' W 074°04'0 0.0
2018-Jul-18 05:30N 40°41' W 074°04'0 0.0
2018-Jul-18 05:00N 40°41' W 074°04'0 0.7
2018-Jul-18 04:30N 40°41' W 074°05'0 0.0
2018-Jul-18 04:00N 40°41' W 074°05'0 0.0
2018-Jul-18 03:30N 40°41' W 074°05'0 0.0
2018-Jul-18 03:00N 40°41' W 074°05'1 1.7
2018-Jul-18 02:30N 40°41' W 074°04'3 5.2
2018-Jul-18 02:00N 40°42' W 074°01'2 3.6
2018-Jul-18 01:30N 40°43' W 073°59'2 3.5
2018-Jul-18 00:54N 40°44' W 073°57'0 0.2
2018-Jul-18 00:24N 40°44' W 073°57'0 0.1
2018-Jul-18 00:00N 40°44' W 073°57'2 4.4
2018-Jul-17 23:30N 40°43' W 073°59'2 4.4
2018-Jul-17 23:00N 40°41' W 074°01'2 4.9
2018-Jul-17 22:30N 40°41' W 074°04'1 1.0
2018-Jul-17 22:00N 40°41' W 074°05'0 0.0
2018-Jul-17 21:30N 40°41' W 074°05'0 0.0
2018-Jul-17 21:00N 40°41' W 074°05'1 2.6
2018-Jul-17 20:30N 40°41' W 074°03'0 0.0
2018-Jul-17 20:00N 40°41' W 074°03'0 0.0
2018-Jul-17 19:30N 40°41' W 074°03'0 0.0
2018-Jul-17 19:00N 40°41' W 074°03'1 2.9
2018-Jul-17 18:30N 40°41' W 074°05'1 1.2
2018-Jul-17 18:00N 40°41' W 074°04'2 4.9
2018-Jul-17 17:30N 40°40' W 074°01'1 2.4
2018-Jul-17 17:00N 40°40' W 073°60'0 0.7
2018-Jul-17 16:30N 40°40' W 074°00'3 5.8
2018-Jul-17 16:00N 40°41' W 074°04'1 1.7
2018-Jul-17 15:29N 40°41' W 074°05'0 0.0
2018-Jul-17 15:00N 40°41' W 074°05'0 0.0
2018-Jul-17 14:30N 40°41' W 074°05'0 0.0
2018-Jul-17 14:00N 40°41' W 074°05'0 0.0
2018-Jul-17 13:29N 40°41' W 074°05'0 0.0
2018-Jul-17 13:00N 40°41' W 074°05'0 0.0
2018-Jul-17 12:30N 40°41' W 074°05'0 0.0
2018-Jul-17 12:00N 40°41' W 074°05'0 0.2
2018-Jul-17 11:30N 40°41' W 074°05'0 0.0
2018-Jul-17 11:00N 40°41' W 074°05'0 0.0
2018-Jul-17 10:30N 40°41' W 074°05'0 0.0
2018-Jul-17 10:00N 40°41' W 074°05'0 0.0
2018-Jul-17 09:30N 40°41' W 074°05'0 0.0
2018-Jul-17 09:00N 40°41' W 074°05'0 0.0
2018-Jul-17 08:30N 40°41' W 074°05'0 0.0
2018-Jul-17 08:00N 40°41' W 074°05'2 4.2
2018-Jul-17 07:30N 40°42' W 074°02'5 8.0
2018-Jul-17 06:56N 40°44' W 073°57'2 3.3
2018-Jul-17 06:27N 40°43' W 073°56'0 0.0
2018-Jul-17 06:00N 40°43' W 073°56'1 2.8
2018-Jul-17 05:29N 40°44' W 073°57'1 1.9
2018-Jul-17 05:00N 40°44' W 073°58'3 6.6
2018-Jul-17 04:30N 40°42' W 074°01'3 6.0
2018-Jul-17 04:00N 40°41' W 074°05'0 0.0
2018-Jul-17 03:30N 40°41' W 074°05'0 0.0
2018-Jul-17 02:57N 40°41' W 074°05'0 0.0
2018-Jul-17 02:30N 40°41' W 074°05'0 0.0
2018-Jul-17 01:59N 40°41' W 074°05'0 0.0
2018-Jul-17 01:30N 40°41' W 074°05'0 0.0
2018-Jul-17 01:00N 40°41' W 074°05'0 0.0
2018-Jul-17 00:29N 40°41' W 074°05'0 0.0
2018-Jul-16 23:30N 40°41' W 074°05'0 0.0
2018-Jul-16 23:00N 40°41' W 074°05'0 0.0
2018-Jul-16 22:30N 40°41' W 074°05'0 0.0
2018-Jul-16 22:00N 40°41' W 074°05'0 0.0
2018-Jul-16 21:30N 40°41' W 074°05'0 0.0
2018-Jul-16 21:00N 40°41' W 074°05'0 0.0
2018-Jul-16 20:30N 40°41' W 074°05'1 1.0
2018-Jul-16 20:00N 40°41' W 074°04'3 6.0
2018-Jul-16 19:30N 40°42' W 074°00'4 3.6
2018-Jul-16 18:30N 40°44' W 073°57'1 2.2
2018-Jul-16 18:00N 40°44' W 073°58'3 5.8
2018-Jul-16 17:30N 40°42' W 074°01'3 5.6
2018-Jul-16 17:00N 40°41' W 074°04'0 0.4
2018-Jul-16 16:30N 40°41' W 074°05'0 0.0
2018-Jul-16 16:00N 40°41' W 074°05'0 0.0
2018-Jul-16 15:30N 40°41' W 074°05'0 0.0
2018-Jul-16 15:00N 40°41' W 074°05'0 0.0
2018-Jul-16 14:30N 40°41' W 074°05'0 0.0
2018-Jul-16 14:00N 40°41' W 074°05'0 0.0
2018-Jul-16 13:30N 40°41' W 074°05'0 0.0
2018-Jul-16 13:00N 40°41' W 074°05'0 0.0
2018-Jul-16 12:30N 40°41' W 074°05'0 0.0
2018-Jul-16 12:00N 40°41' W 074°05'1 2.3
2018-Jul-16 11:30N 40°40' W 074°05'2 3.4
2018-Jul-16 10:48N 40°39' W 074°07'0 0.0
2018-Jul-16 10:30N 40°39' W 074°07'0 0.9
2018-Jul-16 09:59N 40°39' W 074°08'1 2.8
2018-Jul-16 09:30N 40°39' W 074°06'2 3.3
2018-Jul-16 09:00N 40°38' W 074°04'1 1.6
2018-Jul-16 08:30N 40°39' W 074°04'2 1.6
2018-Jul-16 06:58N 40°41' W 074°05'0 0.0
2018-Jul-16 06:30N 40°41' W 074°05'0 0.0
2018-Jul-16 05:22N 40°41' W 074°05'0 0.0
2018-Jul-16 02:11N 40°41' W 074°05'0 0.0
2018-Jul-16 02:00N 40°41' W 074°05'0 0.0
2018-Jul-16 01:30N 40°41' W 074°05'0 0.0
2018-Jul-16 00:59N 40°41' W 074°05'0 0.0
2018-Jul-16 00:30N 40°41' W 074°05'0 0.0
2018-Jul-15 23:59N 40°41' W 074°05'0 0.0
2018-Jul-15 23:30N 40°41' W 074°05'0 0.0
2018-Jul-15 23:00N 40°41' W 074°05'0 0.0
2018-Jul-15 22:30N 40°41' W 074°05'0 0.0
2018-Jul-15 22:00N 40°41' W 074°05'0 0.0
2018-Jul-15 21:30N 40°41' W 074°05'0 0.0
2018-Jul-15 21:00N 40°41' W 074°05'0 0.0
2018-Jul-15 20:30N 40°41' W 074°05'0 0.0
2018-Jul-15 20:00N 40°41' W 074°05'0 0.0
2018-Jul-15 19:30N 40°41' W 074°05'0 0.0
2018-Jul-15 19:00N 40°41' W 074°05'0 0.0
2018-Jul-15 18:30N 40°41' W 074°05'0 0.0
2018-Jul-15 18:00N 40°41' W 074°05'0 0.0
2018-Jul-15 17:24N 40°41' W 074°05'0 0.0
2018-Jul-15 17:00N 40°41' W 074°05'0 0.0
2018-Jul-15 16:30N 40°41' W 074°05'0 0.0
2018-Jul-15 16:00N 40°41' W 074°05'0 0.0
2018-Jul-15 15:30N 40°41' W 074°05'0 0.0
2018-Jul-15 15:00N 40°41' W 074°05'0 0.0
2018-Jul-15 14:30N 40°41' W 074°05'0 0.0
2018-Jul-15 14:00N 40°41' W 074°05'0 0.0
2018-Jul-15 13:30N 40°41' W 074°05'0 0.0
2018-Jul-15 12:59N 40°41' W 074°05'0 0.0
2018-Jul-15 12:30N 40°41' W 074°05'0 0.0
2018-Jul-15 12:00N 40°41' W 074°05'0 0.0
2018-Jul-15 11:30N 40°41' W 074°05'0 0.0
2018-Jul-15 11:00N 40°41' W 074°05'0 0.0
2018-Jul-15 10:30N 40°41' W 074°05'0 0.0
2018-Jul-15 10:00N 40°41' W 074°05'0 0.0
2018-Jul-15 09:30N 40°41' W 074°05'0 0.0
2018-Jul-15 09:00N 40°41' W 074°05'0 0.0
2018-Jul-15 08:30N 40°41' W 074°05'0 0.0
2018-Jul-15 08:00N 40°41' W 074°05'0 0.0
2018-Jul-15 07:30N 40°41' W 074°05'0 0.0
2018-Jul-15 07:00N 40°41' W 074°05'0 0.9
2018-Jul-15 06:30N 40°41' W 074°04'4 7.6
2018-Jul-15 06:00N 40°42' W 073°60'4 1.6
2018-Jul-15 03:27N 40°46' W 073°57'4 8.4
2018-Jul-15 03:00N 40°42' W 073°59'4 8.6
2018-Jul-15 02:30N 40°40' W 074°04'4 7.1
2018-Jul-15 02:00N 40°39' W 074°08'2 4.2
2018-Jul-15 01:27N 40°41' W 074°09'0 0.0
2018-Jul-15 01:00N 40°41' W 074°09'0 0.0
2018-Jul-15 00:30N 40°41' W 074°09'0 0.0
2018-Jul-15 00:00N 40°41' W 074°09'0 0.1
2018-Jul-14 23:30N 40°41' W 074°08'0 0.1
2018-Jul-14 22:59N 40°41' W 074°08'1 2.1
2018-Jul-14 22:26N 40°42' W 074°09'0 0.0
2018-Jul-14 22:00N 40°42' W 074°09'0 0.0
2018-Jul-14 21:23N 40°42' W 074°09'0 0.0
2018-Jul-14 20:56N 40°42' W 074°09'0 0.0
2018-Jul-14 20:07N 40°42' W 074°09'0 0.0
2018-Jul-14 20:00N 40°42' W 074°09'0 0.0
2018-Jul-14 19:28N 40°42' W 074°09'0 0.0
2018-Jul-14 18:47N 40°42' W 074°09'0 0.0
2018-Jul-14 18:23N 40°42' W 074°09'0 0.0
2018-Jul-14 17:59N 40°42' W 074°09'0 0.0
2018-Jul-14 17:07N 40°42' W 074°09'1 4.9
2018-Jul-14 16:59N 40°42' W 074°08'3 6.5
2018-Jul-14 16:30N 40°39' W 074°08'3 6.6
2018-Jul-14 16:00N 40°39' W 074°04'1 2.4
2018-Jul-14 15:30N 40°41' W 074°04'3 5.5
2018-Jul-14 15:00N 40°40' W 073°60'2 2.2
2018-Jul-14 14:00N 40°40' W 074°03'1 3.0
2018-Jul-14 13:30N 40°41' W 074°04'0 0.8
2018-Jul-14 13:00N 40°41' W 074°05'0 0.0
2018-Jul-14 12:30N 40°41' W 074°05'0 0.0
2018-Jul-14 12:00N 40°41' W 074°05'0 0.0
2018-Jul-14 11:30N 40°41' W 074°05'0 0.0
2018-Jul-14 11:00N 40°41' W 074°05'0 0.0
2018-Jul-14 10:30N 40°41' W 074°05'0 0.1
2018-Jul-14 10:00N 40°41' W 074°05'0 0.0
2018-Jul-14 09:30N 40°41' W 074°05'0 0.0
2018-Jul-14 09:00N 40°41' W 074°05'0 0.0
2018-Jul-14 08:29N 40°41' W 074°05'0 0.0
2018-Jul-14 08:00N 40°41' W 074°05'0 0.0
2018-Jul-14 07:30N 40°41' W 074°05'0 0.0
2018-Jul-14 07:00N 40°41' W 074°05'0 0.0
2018-Jul-14 06:30N 40°41' W 074°05'0 0.0
2018-Jul-14 06:00N 40°41' W 074°05'0 0.0
2018-Jul-14 05:30N 40°41' W 074°05'0 0.0
2018-Jul-14 05:00N 40°41' W 074°05'0 0.1
2018-Jul-14 04:30N 40°41' W 074°05'2 3.2
2018-Jul-14 04:01N 40°41' W 074°02'4 7.5
2018-Jul-14 03:30N 40°43' W 073°58'2 3.1
2018-Jul-14 02:50N 40°43' W 073°56'0 1.2
2018-Jul-14 02:30N 40°43' W 073°56'1 2.5
2018-Jul-14 01:54N 40°44' W 073°57'2 4.3
2018-Jul-14 01:30N 40°43' W 073°58'3 5.3
2018-Jul-14 01:00N 40°41' W 074°01'2 4.9
2018-Jul-14 00:30N 40°41' W 074°04'1 1.3
2018-Jul-14 00:00N 40°41' W 074°05'0 0.0
2018-Jul-13 23:30N 40°41' W 074°05'0 0.0
2018-Jul-13 23:00N 40°41' W 074°05'0 0.0
2018-Jul-13 22:30N 40°41' W 074°05'0 0.0
2018-Jul-13 22:00N 40°41' W 074°05'0 0.0
2018-Jul-13 21:30N 40°41' W 074°05'0 0.0
2018-Jul-13 21:00N 40°41' W 074°05'0 0.0
2018-Jul-13 20:30N 40°41' W 074°05'0 0.0
2018-Jul-13 20:00N 40°41' W 074°05'0 0.0
2018-Jul-13 19:30N 40°41' W 074°05'0 0.0
2018-Jul-13 19:00N 40°41' W 074°05'0 0.0
2018-Jul-13 18:30N 40°41' W 074°05'0 0.0
2018-Jul-13 18:00N 40°41' W 074°05'0 0.0
2018-Jul-13 17:30N 40°41' W 074°05'0 0.0
2018-Jul-13 17:00N 40°41' W 074°05'0 0.0
2018-Jul-13 16:30N 40°41' W 074°05'0 0.0
2018-Jul-13 16:00N 40°41' W 074°05'0 0.0
2018-Jul-13 15:30N 40°41' W 074°05'0 0.0
2018-Jul-13 15:00N 40°41' W 074°05'0 0.0
2018-Jul-13 14:00N 40°41' W 074°05'0 0.0
2018-Jul-13 13:30N 40°41' W 074°05'0 0.0
2018-Jul-13 13:00N 40°41' W 074°05'0 0.0
2018-Jul-13 12:30N 40°41' W 074°05'0 0.0
2018-Jul-13 12:00N 40°41' W 074°05'0 0.0
2018-Jul-13 11:30N 40°41' W 074°05'0 0.0
2018-Jul-13 11:00N 40°41' W 074°05'0 0.0
2018-Jul-13 10:30N 40°41' W 074°05'0 0.2
2018-Jul-13 10:00N 40°41' W 074°05'0 0.0
2018-Jul-13 09:30N 40°41' W 074°05'0 0.0
2018-Jul-13 09:00N 40°41' W 074°05'0 0.0
2018-Jul-13 08:30N 40°41' W 074°05'0 0.0
2018-Jul-13 08:00N 40°41' W 074°05'0 0.0
2018-Jul-13 07:30N 40°41' W 074°05'0 0.0
2018-Jul-13 07:00N 40°41' W 074°05'0 0.0
2018-Jul-13 06:30N 40°41' W 074°05'1 1.9
2018-Jul-13 06:00N 40°41' W 074°04'3 6.2
2018-Jul-13 05:30N 40°42' W 074°00'4 7.8
2018-Jul-13 05:00N 40°45' W 073°57'4 8.0
2018-Jul-13 04:29N 40°48' W 073°53'4 1.3
2018-Jul-13 01:33N 40°46' W 073°57'0 8.6
2018-Jul-13 01:30N 40°45' W 073°58'4 7.6
2018-Jul-13 01:00N 40°42' W 074°00'3 6.4
2018-Jul-13 00:30N 40°41' W 074°04'1 1.3
2018-Jul-13 00:00N 40°41' W 074°05'0 0.0
2018-Jul-12 23:30N 40°41' W 074°05'0 0.0
2018-Jul-12 23:01N 40°41' W 074°05'0 0.0
2018-Jul-12 22:30N 40°41' W 074°05'0 0.0
2018-Jul-12 22:00N 40°41' W 074°05'0 0.1
2018-Jul-12 21:30N 40°41' W 074°05'0 0.0
2018-Jul-12 21:00N 40°41' W 074°05'0 0.0
2018-Jul-12 20:29N 40°41' W 074°05'0 0.0
2018-Jul-12 20:00N 40°41' W 074°05'0 0.4
2018-Jul-12 19:30N 40°41' W 074°04'1 2.2
2018-Jul-12 19:00N 40°41' W 074°03'4 7.5
2018-Jul-12 18:30N 40°43' W 073°59'3 0.6
2018-Jul-12 12:55N 40°46' W 073°57'4 8.6
2018-Jul-12 12:30N 40°42' W 073°59'4 7.7
2018-Jul-12 12:00N 40°40' W 074°03'1 2.5
2018-Jul-12 11:30N 40°41' W 074°05'0 0.0
2018-Jul-12 11:00N 40°41' W 074°05'0 0.0
2018-Jul-12 10:30N 40°41' W 074°05'0 0.2
2018-Jul-12 10:00N 40°41' W 074°05'0 0.0
2018-Jul-12 09:30N 40°41' W 074°05'0 0.0
2018-Jul-12 09:00N 40°41' W 074°05'0 0.0
2018-Jul-12 08:30N 40°41' W 074°05'0 0.0
2018-Jul-12 08:00N 40°41' W 074°05'0 0.0
2018-Jul-12 07:30N 40°41' W 074°05'0 0.0
2018-Jul-12 07:00N 40°41' W 074°05'0 0.0
2018-Jul-12 06:30N 40°41' W 074°05'0 0.0
2018-Jul-12 06:00N 40°41' W 074°05'0 0.0
2018-Jul-12 05:30N 40°41' W 074°05'0 0.0
2018-Jul-12 05:00N 40°41' W 074°05'0 0.0
2018-Jul-12 04:30N 40°41' W 074°05'0 0.0
2018-Jul-12 04:00N 40°41' W 074°05'0 0.0
2018-Jul-12 03:30N 40°41' W 074°05'0 0.0
2018-Jul-12 03:00N 40°41' W 074°05'0 0.0
2018-Jul-12 02:29N 40°41' W 074°05'1 2.5
2018-Jul-12 02:00N 40°41' W 074°03'3 5.7
2018-Jul-12 01:30N 40°42' W 074°00'3 5.2
2018-Jul-12 01:00N 40°44' W 073°58'  
Track history (hours):
 
Tides and Currents Weather Stations Pressure Air Temp Water Temp Dewpoint Dewpoint Depression Visibility Wind Speed Wind Dir Waves Ship Positions

Sarah Ann

Owner: Donjon Marine Co., Inc., Hillside, NJ. More information available from US FCC via Universal Licensing System and Coast Guard Vessel Documentation Center.

Last reported at 2018-Jul-21 23:27 UTC. Time now 2018-Jul-22 19:58 UTC.
Position N 40°51' W 073°57'.

Length 2 m; draft 3 m.

Type: Tug. MMSI: 366902120.

Date/timePositionNaut miles runAvg speedWind from/ knotsBaromVisibWave heightAir tempDewpointWater temp
2018-Jul-21 23:27N 40°51' W 073°57'4 9.6
2018-Jul-21 22:59N 40°47' W 073°59'4 9.1
2018-Jul-21 22:31N 40°43' W 074°02'4 8.1
2018-Jul-21 22:00N 40°40' W 074°04'4 7.2
2018-Jul-21 21:30N 40°38' W 074°09'3 6.4
2018-Jul-21 20:59N 40°42' W 074°09'0 0.3
2018-Jul-21 20:02N 40°42' W 074°09'0 0.0
2018-Jul-21 19:59N 40°42' W 074°09'0 0.0
2018-Jul-21 19:30N 40°42' W 074°09'0 0.0
2018-Jul-21 18:55N 40°42' W 074°09'0 0.0
2018-Jul-21 18:23N 40°42' W 074°09'0 0.0
2018-Jul-21 17:48N 40°42' W 074°09'0 0.0
2018-Jul-21 17:14N 40°42' W 074°09'0 0.0
2018-Jul-21 14:28N 40°42' W 074°09'0 0.0
2018-Jul-21 13:18N 40°42' W 074°09'0 0.0
2018-Jul-21 12:59N 40°42' W 074°09'0 0.0
2018-Jul-21 12:25N 40°42' W 074°09'1 1.3
2018-Jul-21 11:46N 40°41' W 074°08'0 0.0
2018-Jul-21 11:20N 40°41' W 074°08'0 0.0
2018-Jul-21 10:55N 40°41' W 074°08'1 1.7
2018-Jul-21 10:31N 40°41' W 074°09'1 1.6
2018-Jul-21 10:00N 40°40' W 074°08'2 3.1
2018-Jul-21 09:30N 40°39' W 074°08'3 5.2
2018-Jul-21 09:01N 40°39' W 074°04'3 6.4
2018-Jul-21 08:31N 40°40' W 074°00'0 0.9
2018-Jul-21 08:00N 40°40' W 073°60'1 1.6
2018-Jul-21 07:31N 40°40' W 074°01'3 5.8
2018-Jul-21 07:01N 40°41' W 074°04'0 0.3
2018-Jul-21 06:30N 40°41' W 074°04'0 0.0
2018-Jul-21 06:01N 40°41' W 074°04'0 0.0
2018-Jul-21 05:30N 40°41' W 074°04'0 0.0
2018-Jul-21 04:59N 40°41' W 074°04'0 0.0
2018-Jul-21 04:30N 40°41' W 074°04'0 0.0
2018-Jul-21 04:01N 40°41' W 074°04'0 0.0
2018-Jul-21 03:31N 40°41' W 074°04'0 0.1
2018-Jul-21 03:01N 40°41' W 074°04'0 0.0
2018-Jul-21 02:30N 40°41' W 074°04'0 0.0
2018-Jul-21 02:00N 40°41' W 074°04'0 0.0
2018-Jul-21 01:30N 40°41' W 074°04'0 0.0
2018-Jul-21 00:59N 40°41' W 074°04'0 0.3
2018-Jul-21 00:31N 40°41' W 074°04'2 4.2
2018-Jul-21 00:01N 40°42' W 074°02'4 7.5
2018-Jul-20 23:30N 40°44' W 073°58'1 1.6
2018-Jul-20 22:57N 40°44' W 073°57'1 2.0
2018-Jul-20 22:14N 40°43' W 073°56'0 0.0
2018-Jul-20 22:00N 40°43' W 073°56'1 2.6
2018-Jul-20 21:27N 40°44' W 073°57'1 2.8
2018-Jul-20 21:00N 40°43' W 073°58'3 6.8
2018-Jul-20 20:30N 40°41' W 074°02'2 4.2
2018-Jul-20 20:01N 40°41' W 074°04'0 0.7
2018-Jul-20 19:31N 40°41' W 074°05'0 0.0
2018-Jul-20 19:01N 40°41' W 074°05'0 0.0
2018-Jul-20 18:31N 40°41' W 074°05'0 0.1
2018-Jul-20 18:00N 40°41' W 074°05'1 2.5
2018-Jul-20 17:30N 40°40' W 074°04'3 6.0
2018-Jul-20 17:00N 40°39' W 074°07'2 3.8
2018-Jul-20 16:31N 40°40' W 074°08'2 0.8
2018-Jul-20 14:23N 40°42' W 074°09'0 0.1
2018-Jul-20 13:57N 40°42' W 074°09'1 1.7
2018-Jul-20 13:29N 40°41' W 074°08'0 0.0
2018-Jul-20 12:59N 40°41' W 074°08'0 1.0
2018-Jul-20 12:30N 40°42' W 074°09'0 0.2
2018-Jul-20 12:00N 40°42' W 074°09'1 1.6
2018-Jul-20 11:30N 40°41' W 074°08'0 0.7
2018-Jul-20 11:00N 40°41' W 074°08'1 2.3
2018-Jul-20 10:31N 40°40' W 074°08'1 2.3
2018-Jul-20 10:00N 40°39' W 074°09'2 3.8
2018-Jul-20 09:31N 40°39' W 074°06'2 4.0
2018-Jul-20 09:00N 40°40' W 074°04'1 2.6
2018-Jul-20 08:30N 40°41' W 074°04'0 0.0
2018-Jul-20 08:00N 40°41' W 074°04'0 0.0
2018-Jul-20 07:30N 40°41' W 074°04'2 4.4
2018-Jul-20 07:01N 40°39' W 074°05'1 1.1
2018-Jul-20 06:30N 40°39' W 074°06'0 0.5
2018-Jul-20 05:47N 40°39' W 074°06'1 5.1
2018-Jul-20 05:31N 40°39' W 074°04'2 3.5
2018-Jul-20 05:01N 40°41' W 074°04'1 1.4
2018-Jul-20 04:30N 40°41' W 074°04'0 0.0
2018-Jul-20 04:00N 40°41' W 074°04'0 0.0
2018-Jul-20 03:30N 40°41' W 074°04'0 0.0
2018-Jul-20 03:00N 40°41' W 074°04'0 0.0
2018-Jul-20 02:31N 40°41' W 074°04'0 0.0
2018-Jul-20 02:00N 40°41' W 074°04'0 0.2
2018-Jul-20 01:30N 40°41' W 074°05'2 4.0
2018-Jul-20 01:00N 40°41' W 074°02'4 7.3
2018-Jul-20 00:30N 40°44' W 073°58'2 0.4
2018-Jul-19 19:09N 40°46' W 073°57'1 7.4
2018-Jul-19 19:01N 40°45' W 073°58'3 6.6
2018-Jul-19 18:31N 40°42' W 074°00'3 5.9
2018-Jul-19 18:00N 40°41' W 074°04'1 1.9
2018-Jul-19 17:31N 40°41' W 074°05'0 0.0
2018-Jul-19 17:01N 40°41' W 074°05'0 0.0
2018-Jul-19 16:31N 40°41' W 074°05'0 0.2
2018-Jul-19 16:01N 40°41' W 074°05'0 0.0
2018-Jul-19 15:31N 40°41' W 074°05'0 0.0
2018-Jul-19 15:01N 40°41' W 074°05'0 0.0
2018-Jul-19 14:30N 40°41' W 074°05'0 0.0
2018-Jul-19 13:30N 40°41' W 074°05'0 0.0
2018-Jul-19 13:01N 40°41' W 074°05'0 0.1
2018-Jul-19 12:30N 40°41' W 074°05'2 4.4
2018-Jul-19 12:01N 40°41' W 074°02'4 7.6
2018-Jul-19 11:31N 40°43' W 073°58'3 0.5
2018-Jul-19 06:45N 40°46' W 073°57'2 7.0
2018-Jul-19 06:30N 40°44' W 073°58'3 5.2
2018-Jul-19 06:00N 40°42' W 074°00'3 5.5
2018-Jul-19 05:30N 40°41' W 074°03'1 2.5
2018-Jul-19 05:00N 40°41' W 074°05'2 4.0
2018-Jul-19 04:30N 40°39' W 074°05'3 5.9
2018-Jul-19 03:59N 40°39' W 074°09'2 3.2
2018-Jul-19 03:30N 40°41' W 074°08'0 0.5
2018-Jul-19 03:00N 40°41' W 074°09'0 0.0
2018-Jul-19 02:30N 40°41' W 074°09'0 0.0
2018-Jul-19 02:00N 40°41' W 074°09'0 0.0
2018-Jul-19 01:30N 40°41' W 074°09'0 0.0
2018-Jul-19 01:00N 40°41' W 074°09'0 0.0
2018-Jul-19 00:30N 40°41' W 074°09'0 0.0
2018-Jul-19 00:00N 40°41' W 074°09'0 0.2
2018-Jul-18 23:30N 40°41' W 074°09'1 1.9
2018-Jul-18 23:00N 40°40' W 074°08'1 1.9
2018-Jul-18 22:30N 40°41' W 074°09'1 2.2
2018-Jul-18 22:00N 40°42' W 074°09'0 0.1
2018-Jul-18 21:17N 40°42' W 074°09'0 0.2
2018-Jul-18 20:58N 40°42' W 074°09'0 0.2
2018-Jul-18 20:27N 40°42' W 074°09'0 0.0
2018-Jul-18 19:59N 40°42' W 074°09'0 0.2
2018-Jul-18 19:30N 40°42' W 074°09'0 0.0
2018-Jul-18 19:00N 40°42' W 074°09'0 0.0
2018-Jul-18 18:30N 40°42' W 074°09'0 0.0
2018-Jul-18 18:00N 40°42' W 074°09'0 0.0
2018-Jul-18 17:30N 40°42' W 074°09'0 0.0
2018-Jul-18 16:59N 40°42' W 074°09'0 0.0
2018-Jul-18 15:50N 40°42' W 074°09'0 0.0
2018-Jul-18 15:28N 40°42' W 074°09'0 0.0
2018-Jul-18 14:58N 40°42' W 074°09'0 0.0
2018-Jul-18 14:30N 40°42' W 074°09'0 0.0
2018-Jul-18 13:27N 40°42' W 074°09'1 1.7
2018-Jul-18 13:00N 40°42' W 074°08'3 6.0
2018-Jul-18 12:30N 40°39' W 074°09'4 7.6
2018-Jul-18 12:00N 40°40' W 074°04'2 3.2
2018-Jul-18 11:31N 40°41' W 074°05'0 0.0
2018-Jul-18 10:30N 40°41' W 074°05'0 0.0
2018-Jul-18 10:00N 40°41' W 074°05'0 0.9
2018-Jul-18 09:30N 40°41' W 074°04'0 0.0
2018-Jul-18 09:00N 40°41' W 074°04'0 0.0
2018-Jul-18 08:30N 40°41' W 074°04'0 0.0
2018-Jul-18 08:00N 40°41' W 074°04'0 0.0
2018-Jul-18 07:30N 40°41' W 074°04'0 0.0
2018-Jul-18 07:00N 40°41' W 074°04'0 0.0
2018-Jul-18 06:30N 40°41' W 074°04'0 0.0
2018-Jul-18 06:00N 40°41' W 074°04'0 0.0
2018-Jul-18 05:30N 40°41' W 074°04'0 0.0
2018-Jul-18 05:00N 40°41' W 074°04'0 0.7
2018-Jul-18 04:30N 40°41' W 074°05'0 0.0
2018-Jul-18 04:00N 40°41' W 074°05'0 0.0
2018-Jul-18 03:30N 40°41' W 074°05'0 0.0
2018-Jul-18 03:00N 40°41' W 074°05'1 1.7
2018-Jul-18 02:30N 40°41' W 074°04'3 5.2
2018-Jul-18 02:00N 40°42' W 074°01'2 3.6
2018-Jul-18 01:30N 40°43' W 073°59'2 3.5
2018-Jul-18 00:54N 40°44' W 073°57'0 0.2
2018-Jul-18 00:24N 40°44' W 073°57'0 0.1
2018-Jul-18 00:00N 40°44' W 073°57'2 4.4
2018-Jul-17 23:30N 40°43' W 073°59'2 4.4
2018-Jul-17 23:00N 40°41' W 074°01'2 4.9
2018-Jul-17 22:30N 40°41' W 074°04'1 1.0
2018-Jul-17 22:00N 40°41' W 074°05'0 0.0
2018-Jul-17 21:30N 40°41' W 074°05'0 0.0
2018-Jul-17 21:00N 40°41' W 074°05'1 2.6
2018-Jul-17 20:30N 40°41' W 074°03'0 0.0
2018-Jul-17 20:00N 40°41' W 074°03'0 0.0
2018-Jul-17 19:30N 40°41' W 074°03'0 0.0
2018-Jul-17 19:00N 40°41' W 074°03'1 2.9
2018-Jul-17 18:30N 40°41' W 074°05'1 1.2
2018-Jul-17 18:00N 40°41' W 074°04'2 4.9
2018-Jul-17 17:30N 40°40' W 074°01'1 2.4
2018-Jul-17 17:00N 40°40' W 073°60'0 0.7
2018-Jul-17 16:30N 40°40' W 074°00'3 5.8
2018-Jul-17 16:00N 40°41' W 074°04'1 1.7
2018-Jul-17 15:29N 40°41' W 074°05'0 0.0
2018-Jul-17 15:00N 40°41' W 074°05'0 0.0
2018-Jul-17 14:30N 40°41' W 074°05'0 0.0
2018-Jul-17 14:00N 40°41' W 074°05'0 0.0
2018-Jul-17 13:29N 40°41' W 074°05'0 0.0
2018-Jul-17 13:00N 40°41' W 074°05'0 0.0
2018-Jul-17 12:30N 40°41' W 074°05'0 0.0
2018-Jul-17 12:00N 40°41' W 074°05'0 0.2
2018-Jul-17 11:30N 40°41' W 074°05'0 0.0
2018-Jul-17 11:00N 40°41' W 074°05'0 0.0
2018-Jul-17 10:30N 40°41' W 074°05'0 0.0
2018-Jul-17 10:00N 40°41' W 074°05'0 0.0
2018-Jul-17 09:30N 40°41' W 074°05'0 0.0
2018-Jul-17 09:00N 40°41' W 074°05'0 0.0
2018-Jul-17 08:30N 40°41' W 074°05'0 0.0
2018-Jul-17 08:00N 40°41' W 074°05'2 4.2
2018-Jul-17 07:30N 40°42' W 074°02'5 8.0
2018-Jul-17 06:56N 40°44' W 073°57'2 3.3
2018-Jul-17 06:27N 40°43' W 073°56'0 0.0
2018-Jul-17 06:00N 40°43' W 073°56'1 2.8
2018-Jul-17 05:29N 40°44' W 073°57'1 1.9
2018-Jul-17 05:00N 40°44' W 073°58'3 6.6
2018-Jul-17 04:30N 40°42' W 074°01'3 6.0
2018-Jul-17 04:00N 40°41' W 074°05'0 0.0
2018-Jul-17 03:30N 40°41' W 074°05'0 0.0
2018-Jul-17 02:57N 40°41' W 074°05'0 0.0
2018-Jul-17 02:30N 40°41' W 074°05'0 0.0
2018-Jul-17 01:59N 40°41' W 074°05'0 0.0
2018-Jul-17 01:30N 40°41' W 074°05'0 0.0
2018-Jul-17 01:00N 40°41' W 074°05'0 0.0
2018-Jul-17 00:29N 40°41' W 074°05'0 0.0
2018-Jul-16 23:30N 40°41' W 074°05'0 0.0
2018-Jul-16 23:00N 40°41' W 074°05'0 0.0
2018-Jul-16 22:30N 40°41' W 074°05'0 0.0
2018-Jul-16 22:00N 40°41' W 074°05'0 0.0
2018-Jul-16 21:30N 40°41' W 074°05'0 0.0
2018-Jul-16 21:00N 40°41' W 074°05'0 0.0
2018-Jul-16 20:30N 40°41' W 074°05'1 1.0
2018-Jul-16 20:00N 40°41' W 074°04'3 6.0
2018-Jul-16 19:30N 40°42' W 074°00'4 3.6
2018-Jul-16 18:30N 40°44' W 073°57'1 2.2
2018-Jul-16 18:00N 40°44' W 073°58'3 5.8
2018-Jul-16 17:30N 40°42' W 074°01'3 5.6
2018-Jul-16 17:00N 40°41' W 074°04'0 0.4
2018-Jul-16 16:30N 40°41' W 074°05'0 0.0
2018-Jul-16 16:00N 40°41' W 074°05'0 0.0
2018-Jul-16 15:30N 40°41' W 074°05'0 0.0
2018-Jul-16 15:00N 40°41' W 074°05'0 0.0
2018-Jul-16 14:30N 40°41' W 074°05'0 0.0
2018-Jul-16 14:00N 40°41' W 074°05'0 0.0
2018-Jul-16 13:30N 40°41' W 074°05'0 0.0
2018-Jul-16 13:00N 40°41' W 074°05'0 0.0
2018-Jul-16 12:30N 40°41' W 074°05'0 0.0
2018-Jul-16 12:00N 40°41' W 074°05'1 2.3
2018-Jul-16 11:30N 40°40' W 074°05'2 3.4
2018-Jul-16 10:48N 40°39' W 074°07'0 0.0
2018-Jul-16 10:30N 40°39' W 074°07'0 0.9
2018-Jul-16 09:59N 40°39' W 074°08'1 2.8
2018-Jul-16 09:30N 40°39' W 074°06'2 3.3
2018-Jul-16 09:00N 40°38' W 074°04'1 1.6
2018-Jul-16 08:30N 40°39' W 074°04'2 1.6
2018-Jul-16 06:58N 40°41' W 074°05'0 0.0
2018-Jul-16 06:30N 40°41' W 074°05'0 0.0
2018-Jul-16 05:22N 40°41' W 074°05'0 0.0
2018-Jul-16 02:11N 40°41' W 074°05'0 0.0
2018-Jul-16 02:00N 40°41' W 074°05'0 0.0
2018-Jul-16 01:30N 40°41' W 074°05'0 0.0
2018-Jul-16 00:59N 40°41' W 074°05'0 0.0
2018-Jul-16 00:30N 40°41' W 074°05'0 0.0
2018-Jul-15 23:59N 40°41' W 074°05'0 0.0
2018-Jul-15 23:30N 40°41' W 074°05'0 0.0
2018-Jul-15 23:00N 40°41' W 074°05'0 0.0
2018-Jul-15 22:30N 40°41' W 074°05'0 0.0
2018-Jul-15 22:00N 40°41' W 074°05'0 0.0
2018-Jul-15 21:30N 40°41' W 074°05'0 0.0
2018-Jul-15 21:00N 40°41' W 074°05'0 0.0
2018-Jul-15 20:30N 40°41' W 074°05'0 0.0
2018-Jul-15 20:00N 40°41' W 074°05'0 0.0
2018-Jul-15 19:30N 40°41' W 074°05'0 0.0
2018-Jul-15 19:00N 40°41' W 074°05'0 0.0
2018-Jul-15 18:30N 40°41' W 074°05'0 0.0
2018-Jul-15 18:00N 40°41' W 074°05'0 0.0
2018-Jul-15 17:24N 40°41' W 074°05'0 0.0
2018-Jul-15 17:00N 40°41' W 074°05'0 0.0
2018-Jul-15 16:30N 40°41' W 074°05'0 0.0
2018-Jul-15 16:00N 40°41' W 074°05'0 0.0
2018-Jul-15 15:30N 40°41' W 074°05'0 0.0
2018-Jul-15 15:00N 40°41' W 074°05'0 0.0
2018-Jul-15 14:30N 40°41' W 074°05'0 0.0
2018-Jul-15 14:00N 40°41' W 074°05'0 0.0
2018-Jul-15 13:30N 40°41' W 074°05'0 0.0
2018-Jul-15 12:59N 40°41' W 074°05'0 0.0
2018-Jul-15 12:30N 40°41' W 074°05'0 0.0
2018-Jul-15 12:00N 40°41' W 074°05'0 0.0
2018-Jul-15 11:30N 40°41' W 074°05'0 0.0
2018-Jul-15 11:00N 40°41' W 074°05'0 0.0
2018-Jul-15 10:30N 40°41' W 074°05'0 0.0
2018-Jul-15 10:00N 40°41' W 074°05'0 0.0
2018-Jul-15 09:30N 40°41' W 074°05'0 0.0
2018-Jul-15 09:00N 40°41' W 074°05'0 0.0
2018-Jul-15 08:30N 40°41' W 074°05'0 0.0
2018-Jul-15 08:00N 40°41' W 074°05'0 0.0
2018-Jul-15 07:30N 40°41' W 074°05'0 0.0
2018-Jul-15 07:00N 40°41' W 074°05'0 0.9
2018-Jul-15 06:30N 40°41' W 074°04'4 7.6
2018-Jul-15 06:00N 40°42' W 073°60'4 1.6
2018-Jul-15 03:27N 40°46' W 073°57'4 8.4
2018-Jul-15 03:00N 40°42' W 073°59'4 8.6
2018-Jul-15 02:30N 40°40' W 074°04'4 7.1
2018-Jul-15 02:00N 40°39' W 074°08'2 4.2
2018-Jul-15 01:27N 40°41' W 074°09'0 0.0
2018-Jul-15 01:00N 40°41' W 074°09'0 0.0
2018-Jul-15 00:30N 40°41' W 074°09'0 0.0
2018-Jul-15 00:00N 40°41' W 074°09'0 0.1
2018-Jul-14 23:30N 40°41' W 074°08'0 0.1
2018-Jul-14 22:59N 40°41' W 074°08'1 2.1
2018-Jul-14 22:26N 40°42' W 074°09'0 0.0
2018-Jul-14 22:00N 40°42' W 074°09'0 0.0
2018-Jul-14 21:23N 40°42' W 074°09'0 0.0
2018-Jul-14 20:56N 40°42' W 074°09'0 0.0
2018-Jul-14 20:07N 40°42' W 074°09'0 0.0
2018-Jul-14 20:00N 40°42' W 074°09'0 0.0
2018-Jul-14 19:28N 40°42' W 074°09'0 0.0
2018-Jul-14 18:47N 40°42' W 074°09'0 0.0
2018-Jul-14 18:23N 40°42' W 074°09'0 0.0
2018-Jul-14 17:59N 40°42' W 074°09'0 0.0
2018-Jul-14 17:07N 40°42' W 074°09'1 4.9
2018-Jul-14 16:59N 40°42' W 074°08'3 6.5
2018-Jul-14 16:30N 40°39' W 074°08'3 6.6
2018-Jul-14 16:00N 40°39' W 074°04'1 2.4
2018-Jul-14 15:30N 40°41' W 074°04'3 5.5
2018-Jul-14 15:00N 40°40' W 073°60'2 2.2
2018-Jul-14 14:00N 40°40' W 074°03'1 3.0
2018-Jul-14 13:30N 40°41' W 074°04'0 0.8
2018-Jul-14 13:00N 40°41' W 074°05'0 0.0
2018-Jul-14 12:30N 40°41' W 074°05'0 0.0
2018-Jul-14 12:00N 40°41' W 074°05'0 0.0
2018-Jul-14 11:30N 40°41' W 074°05'0 0.0
2018-Jul-14 11:00N 40°41' W 074°05'0 0.0
2018-Jul-14 10:30N 40°41' W 074°05'0 0.1
2018-Jul-14 10:00N 40°41' W 074°05'0 0.0
2018-Jul-14 09:30N 40°41' W 074°05'0 0.0
2018-Jul-14 09:00N 40°41' W 074°05'0 0.0
2018-Jul-14 08:29N 40°41' W 074°05'0 0.0
2018-Jul-14 08:00N 40°41' W 074°05'0 0.0
2018-Jul-14 07:30N 40°41' W 074°05'0 0.0
2018-Jul-14 07:00N 40°41' W 074°05'0 0.0
2018-Jul-14 06:30N 40°41' W 074°05'0 0.0
2018-Jul-14 06:00N 40°41' W 074°05'0 0.0
2018-Jul-14 05:30N 40°41' W 074°05'0 0.0
2018-Jul-14 05:00N 40°41' W 074°05'0 0.1
2018-Jul-14 04:30N 40°41' W 074°05'2 3.2
2018-Jul-14 04:01N 40°41' W 074°02'4 7.5
2018-Jul-14 03:30N 40°43' W 073°58'2 3.1
2018-Jul-14 02:50N 40°43' W 073°56'0 1.2
2018-Jul-14 02:30N 40°43' W 073°56'1 2.5
2018-Jul-14 01:54N 40°44' W 073°57'2 4.3
2018-Jul-14 01:30N 40°43' W 073°58'3 5.3
2018-Jul-14 01:00N 40°41' W 074°01'2 4.9
2018-Jul-14 00:30N 40°41' W 074°04'1 1.3
2018-Jul-14 00:00N 40°41' W 074°05'0 0.0
2018-Jul-13 23:30N 40°41' W 074°05'0 0.0
2018-Jul-13 23:00N 40°41' W 074°05'0 0.0
2018-Jul-13 22:30N 40°41' W 074°05'0 0.0
2018-Jul-13 22:00N 40°41' W 074°05'0 0.0
2018-Jul-13 21:30N 40°41' W 074°05'0 0.0
2018-Jul-13 21:00N 40°41' W 074°05'0 0.0
2018-Jul-13 20:30N 40°41' W 074°05'0 0.0
2018-Jul-13 20:00N 40°41' W 074°05'0 0.0
2018-Jul-13 19:30N 40°41' W 074°05'0 0.0
2018-Jul-13 19:00N 40°41' W 074°05'0 0.0
2018-Jul-13 18:30N 40°41' W 074°05'0 0.0
2018-Jul-13 18:00N 40°41' W 074°05'0 0.0
2018-Jul-13 17:30N 40°41' W 074°05'0 0.0
2018-Jul-13 17:00N 40°41' W 074°05'0 0.0
2018-Jul-13 16:30N 40°41' W 074°05'0 0.0
2018-Jul-13 16:00N 40°41' W 074°05'0 0.0
2018-Jul-13 15:30N 40°41' W 074°05'0 0.0
2018-Jul-13 15:00N 40°41' W 074°05'0 0.0
2018-Jul-13 14:00N 40°41' W 074°05'0 0.0
2018-Jul-13 13:30N 40°41' W 074°05'0 0.0
2018-Jul-13 13:00N 40°41' W 074°05'0 0.0
2018-Jul-13 12:30N 40°41' W 074°05'0 0.0
2018-Jul-13 12:00N 40°41' W 074°05'0 0.0
2018-Jul-13 11:30N 40°41' W 074°05'0 0.0
2018-Jul-13 11:00N 40°41' W 074°05'0 0.0
2018-Jul-13 10:30N 40°41' W 074°05'0 0.2
2018-Jul-13 10:00N 40°41' W 074°05'0 0.0
2018-Jul-13 09:30N 40°41' W 074°05'0 0.0
2018-Jul-13 09:00N 40°41' W 074°05'0 0.0
2018-Jul-13 08:30N 40°41' W 074°05'0 0.0
2018-Jul-13 08:00N 40°41' W 074°05'0 0.0
2018-Jul-13 07:30N 40°41' W 074°05'0 0.0
2018-Jul-13 07:00N 40°41' W 074°05'0 0.0
2018-Jul-13 06:30N 40°41' W 074°05'1 1.9
2018-Jul-13 06:00N 40°41' W 074°04'3 6.2
2018-Jul-13 05:30N 40°42' W 074°00'4 7.8
2018-Jul-13 05:00N 40°45' W 073°57'4 8.0
2018-Jul-13 04:29N 40°48' W 073°53'4 1.3
2018-Jul-13 01:33N 40°46' W 073°57'0 8.6
2018-Jul-13 01:30N 40°45' W 073°58'4 7.6
2018-Jul-13 01:00N 40°42' W 074°00'3 6.4
2018-Jul-13 00:30N 40°41' W 074°04'1 1.3
2018-Jul-13 00:00N 40°41' W 074°05'0 0.0
2018-Jul-12 23:30N 40°41' W 074°05'0 0.0
2018-Jul-12 23:01N 40°41' W 074°05'0 0.0
2018-Jul-12 22:30N 40°41' W 074°05'0 0.0
2018-Jul-12 22:00N 40°41' W 074°05'0 0.1
2018-Jul-12 21:30N 40°41' W 074°05'0 0.0
2018-Jul-12 21:00N 40°41' W 074°05'0 0.0
2018-Jul-12 20:29N 40°41' W 074°05'0 0.0
2018-Jul-12 20:00N 40°41' W 074°05'0 0.4
2018-Jul-12 19:30N 40°41' W 074°04'1 2.2
2018-Jul-12 19:00N 40°41' W 074°03'4 7.5
2018-Jul-12 18:30N 40°43' W 073°59'3 0.6
2018-Jul-12 12:55N 40°46' W 073°57'4 8.6
2018-Jul-12 12:30N 40°42' W 073°59'4 7.7
2018-Jul-12 12:00N 40°40' W 074°03'1 2.5
2018-Jul-12 11:30N 40°41' W 074°05'0 0.0
2018-Jul-12 11:00N 40°41' W 074°05'0 0.0
2018-Jul-12 10:30N 40°41' W 074°05'0 0.2
2018-Jul-12 10:00N 40°41' W 074°05'0 0.0
2018-Jul-12 09:30N 40°41' W 074°05'0 0.0
2018-Jul-12 09:00N 40°41' W 074°05'0 0.0
2018-Jul-12 08:30N 40°41' W 074°05'0 0.0
2018-Jul-12 08:00N 40°41' W 074°05'0 0.0
2018-Jul-12 07:30N 40°41' W 074°05'0 0.0
2018-Jul-12 07:00N 40°41' W 074°05'0 0.0
2018-Jul-12 06:30N 40°41' W 074°05'0 0.0
2018-Jul-12 06:00N 40°41' W 074°05'0 0.0
2018-Jul-12 05:30N 40°41' W 074°05'0 0.0
2018-Jul-12 05:00N 40°41' W 074°05'0 0.0
2018-Jul-12 04:30N 40°41' W 074°05'0 0.0
2018-Jul-12 04:00N 40°41' W 074°05'0 0.0
2018-Jul-12 03:30N 40°41' W 074°05'0 0.0
2018-Jul-12 03:00N 40°41' W 074°05'0 0.0
2018-Jul-12 02:29N 40°41' W 074°05'1 2.5
2018-Jul-12 02:00N 40°41' W 074°03'3 5.7
2018-Jul-12 01:30N 40°42' W 074°00'3 5.2
2018-Jul-12 01:00N 40°44' W 073°58'  

Dump ship's entire track history